ASA1339 KLAX-KSFO
Flight info
| Callsign | ASA1339 |
|---|---|
| Flight time | 0h 56m |
| Altitude | 32000 |
| Route | SUMMR2 STOKD SERFR SERFR4 |
| Aircraft | B738/M-SDE2E3FGHIRWXY/LB1 |
Departure
| Time | 2026-05-05 16:57 |
|---|---|
| Airport | Los Angeles International Airport (KLAX) |
Arrival
| Time | 2026-05-05 17:54 |
|---|---|
| Airport | San Francisco International Airport (KSFO) |
| Time | Latitude | Longitude | Altitude | Speed | Heading |
|---|---|---|---|---|---|
| 2026-05-05 16:26 | 33.94145 | -118.40148 | 93 ft | 0 kts | 275° |
| 2026-05-05 16:45 | 33.94145 | -118.40147 | 92 ft | 1 kts | 275° |
| 2026-05-05 16:46 | 33.94144 | -118.40129 | 92 ft | 3 kts | 275° |
| 2026-05-05 16:46 | 33.94142 | -118.40105 | 92 ft | 3 kts | 269° |
| 2026-05-05 16:46 | 33.94144 | -118.40088 | 92 ft | 3 kts | 211° |
| 2026-05-05 16:46 | 33.94153 | -118.40085 | 92 ft | 1 kts | 173° |
| 2026-05-05 16:47 | 33.94143 | -118.40083 | 92 ft | 3 kts | 173° |
| 2026-05-05 16:47 | 33.94122 | -118.40080 | 92 ft | 3 kts | 173° |
| 2026-05-05 16:47 | 33.94102 | -118.40077 | 93 ft | 3 kts | 173° |
| 2026-05-05 16:47 | 33.94082 | -118.40074 | 92 ft | 3 kts | 173° |
| 2026-05-05 16:48 | 33.94062 | -118.40071 | 92 ft | 3 kts | 173° |
| 2026-05-05 16:48 | 33.94047 | -118.40069 | 93 ft | 1 kts | 173° |
| 2026-05-05 16:51 | 33.94041 | -118.40068 | 94 ft | 7 kts | 173° |
| 2026-05-05 16:51 | 33.93982 | -118.40059 | 93 ft | 2 kts | 172° |
| 2026-05-05 16:52 | 33.93959 | -118.40055 | 95 ft | 8 kts | 172° |
| 2026-05-05 16:52 | 33.93894 | -118.40023 | 96 ft | 14 kts | 129° |
| 2026-05-05 16:52 | 33.93890 | -118.39885 | 95 ft | 20 kts | 83° |
| 2026-05-05 16:52 | 33.93909 | -118.39706 | 94 ft | 22 kts | 83° |
| 2026-05-05 16:53 | 33.93929 | -118.39507 | 94 ft | 25 kts | 83° |
| 2026-05-05 16:53 | 33.93951 | -118.39289 | 92 ft | 29 kts | 83° |
| 2026-05-05 16:53 | 33.93972 | -118.39084 | 93 ft | 20 kts | 83° |
| 2026-05-05 16:53 | 33.93992 | -118.38884 | 93 ft | 27 kts | 83° |
| 2026-05-05 16:54 | 33.94020 | -118.38625 | 94 ft | 35 kts | 83° |
| 2026-05-05 16:54 | 33.94039 | -118.38427 | 98 ft | 11 kts | 83° |
| 2026-05-05 16:54 | 33.94044 | -118.38379 | 95 ft | 0 kts | 82° |
| 2026-05-05 16:54 | 33.94043 | -118.38353 | 95 ft | 7 kts | 104° |
| 2026-05-05 16:55 | 33.94002 | -118.38323 | 98 ft | 8 kts | 173° |
| 2026-05-05 16:55 | 33.93971 | -118.38321 | 99 ft | 5 kts | 180° |
| 2026-05-05 16:55 | 33.93949 | -118.38361 | 98 ft | 6 kts | 264° |
| 2026-05-05 16:55 | 33.93948 | -118.38369 | 98 ft | 0 kts | 264° |
| 2026-05-05 16:56 | 33.93946 | -118.38388 | 98 ft | 10 kts | 264° |
| 2026-05-05 16:56 | 33.93911 | -118.38739 | 97 ft | 77 kts | 263° |
| 2026-05-05 16:56 | 33.93820 | -118.39629 | 96 ft | 134 kts | 263° |
| 2026-05-05 16:57 | 33.93680 | -118.40890 | 362 ft | 158 kts | 262° |
| 2026-05-05 16:57 | 33.93538 | -118.42198 | 1061 ft | 162 kts | 262° |
| 2026-05-05 16:57 | 33.93392 | -118.43607 | 1619 ft | 174 kts | 264° |
| 2026-05-05 16:57 | 33.93244 | -118.45094 | 2167 ft | 188 kts | 264° |
| 2026-05-05 16:58 | 33.93091 | -118.46719 | 2601 ft | 199 kts | 265° |
| 2026-05-05 16:58 | 33.92951 | -118.48409 | 3079 ft | 206 kts | 265° |
| 2026-05-05 16:58 | 33.92809 | -118.50119 | 3628 ft | 207 kts | 265° |
| 2026-05-05 16:58 | 33.92676 | -118.51859 | 4170 ft | 212 kts | 266° |
| 2026-05-05 16:59 | 33.92532 | -118.53693 | 4510 ft | 230 kts | 265° |
| 2026-05-05 16:59 | 33.92370 | -118.55663 | 5013 ft | 241 kts | 265° |
| 2026-05-05 16:59 | 33.92205 | -118.57699 | 5719 ft | 246 kts | 266° |
| 2026-05-05 16:59 | 33.92050 | -118.59738 | 6652 ft | 242 kts | 266° |
| 2026-05-05 17:00 | 33.91878 | -118.61779 | 7302 ft | 251 kts | 265° |
| 2026-05-05 17:00 | 33.91724 | -118.63920 | 7761 ft | 263 kts | 269° |
| 2026-05-05 17:00 | 33.91697 | -118.66126 | 8578 ft | 262 kts | 271° |
| 2026-05-05 17:00 | 33.91708 | -118.68336 | 9372 ft | 267 kts | 272° |
| 2026-05-05 17:01 | 33.91722 | -118.70604 | 9997 ft | 276 kts | 271° |
| 2026-05-05 17:01 | 33.91730 | -118.72976 | 10440 ft | 291 kts | 271° |
| 2026-05-05 17:01 | 33.91729 | -118.75453 | 11047 ft | 298 kts | 271° |
| 2026-05-05 17:01 | 33.91721 | -118.77959 | 11691 ft | 300 kts | 271° |
| 2026-05-05 17:02 | 33.91710 | -118.80484 | 11994 ft | 303 kts | 271° |
| 2026-05-05 17:02 | 33.91698 | -118.83040 | 11988 ft | 306 kts | 271° |
| 2026-05-05 17:02 | 33.91734 | -118.85618 | 12205 ft | 310 kts | 273° |
| 2026-05-05 17:02 | 33.91820 | -118.88208 | 13106 ft | 307 kts | 274° |
| 2026-05-05 17:03 | 33.91908 | -118.90741 | 14014 ft | 308 kts | 274° |
| 2026-05-05 17:03 | 33.91994 | -118.93343 | 14731 ft | 312 kts | 273° |
| 2026-05-05 17:03 | 33.92074 | -118.95975 | 15446 ft | 317 kts | 274° |
| 2026-05-05 17:03 | 33.92152 | -118.98646 | 16201 ft | 320 kts | 273° |
| 2026-05-05 17:04 | 33.92333 | -119.01273 | 16865 ft | 325 kts | 285° |
| 2026-05-05 17:04 | 33.93241 | -119.03772 | 17578 ft | 327 kts | 302° |
| 2026-05-05 17:04 | 33.94450 | -119.06099 | 18379 ft | 329 kts | 303° |
| 2026-05-05 17:04 | 33.95699 | -119.08440 | 19002 ft | 334 kts | 303° |
| 2026-05-05 17:05 | 33.96952 | -119.10811 | 19685 ft | 336 kts | 303° |
| 2026-05-05 17:05 | 33.98200 | -119.13207 | 20343 ft | 340 kts | 303° |
| 2026-05-05 17:05 | 33.99456 | -119.15636 | 20998 ft | 343 kts | 303° |
| 2026-05-05 17:05 | 34.00712 | -119.18012 | 21629 ft | 346 kts | 307° |
| 2026-05-05 17:06 | 34.02444 | -119.20015 | 22245 ft | 347 kts | 324° |
| 2026-05-05 17:06 | 34.04422 | -119.21706 | 22918 ft | 350 kts | 326° |
| 2026-05-05 17:06 | 34.06425 | -119.23389 | 23541 ft | 353 kts | 326° |
| 2026-05-05 17:06 | 34.08452 | -119.25094 | 24059 ft | 356 kts | 327° |
| 2026-05-05 17:07 | 34.10486 | -119.26812 | 24594 ft | 358 kts | 327° |
| 2026-05-05 17:07 | 34.12531 | -119.28556 | 25122 ft | 360 kts | 327° |
| 2026-05-05 17:07 | 34.14586 | -119.30316 | 25640 ft | 363 kts | 327° |
| 2026-05-05 17:07 | 34.16658 | -119.32098 | 26178 ft | 366 kts | 327° |
| 2026-05-05 17:08 | 34.18740 | -119.33892 | 26727 ft | 369 kts | 327° |
| 2026-05-05 17:08 | 34.20836 | -119.35699 | 27235 ft | 373 kts | 327° |
| 2026-05-05 17:08 | 34.22929 | -119.37504 | 27708 ft | 375 kts | 328° |
| 2026-05-05 17:08 | 34.25061 | -119.39345 | 28165 ft | 378 kts | 328° |
| 2026-05-05 17:09 | 34.27213 | -119.41206 | 28613 ft | 381 kts | 329° |
| 2026-05-05 17:09 | 34.29378 | -119.43077 | 29052 ft | 384 kts | 329° |
| 2026-05-05 17:09 | 34.31561 | -119.44968 | 29492 ft | 387 kts | 329° |
| 2026-05-05 17:09 | 34.33762 | -119.46874 | 29909 ft | 390 kts | 329° |
| 2026-05-05 17:10 | 34.35975 | -119.48792 | 30263 ft | 393 kts | 329° |
| 2026-05-05 17:10 | 34.38208 | -119.50728 | 30586 ft | 396 kts | 328° |
| 2026-05-05 17:10 | 34.40454 | -119.52677 | 30922 ft | 398 kts | 328° |
| 2026-05-05 17:10 | 34.42618 | -119.54808 | 31242 ft | 405 kts | 321° |
| 2026-05-05 17:11 | 34.44623 | -119.57228 | 31589 ft | 408 kts | 319° |
| 2026-05-05 17:11 | 34.46590 | -119.59709 | 31929 ft | 409 kts | 318° |
| 2026-05-05 17:11 | 34.50557 | -119.64746 | 32009 ft | 417 kts | 318° |
| 2026-05-05 17:12 | 34.54668 | -119.69893 | 32015 ft | 431 kts | 318° |
| 2026-05-05 17:12 | 34.58935 | -119.75177 | 32018 ft | 445 kts | 318° |
| 2026-05-05 17:13 | 34.63338 | -119.80617 | 32013 ft | 457 kts | 318° |
| 2026-05-05 17:13 | 34.67822 | -119.86170 | 32006 ft | 462 kts | 319° |
| 2026-05-05 17:14 | 34.72292 | -119.91717 | 32012 ft | 462 kts | 319° |
| 2026-05-05 17:14 | 34.76791 | -119.97303 | 32023 ft | 462 kts | 319° |
| 2026-05-05 17:15 | 34.81244 | -120.02841 | 32032 ft | 462 kts | 319° |
| 2026-05-05 17:15 | 34.85746 | -120.08439 | 32031 ft | 461 kts | 319° |
| 2026-05-05 17:16 | 34.90222 | -120.14041 | 32024 ft | 460 kts | 320° |
| 2026-05-05 17:16 | 34.94620 | -120.19628 | 32057 ft | 459 kts | 320° |
| 2026-05-05 17:17 | 34.99103 | -120.25173 | 32055 ft | 458 kts | 320° |
| 2026-05-05 17:17 | 35.03571 | -120.30707 | 32069 ft | 458 kts | 320° |
| 2026-05-05 17:18 | 35.08001 | -120.36315 | 32061 ft | 458 kts | 320° |
| 2026-05-05 17:18 | 35.12564 | -120.41716 | 32058 ft | 455 kts | 324° |
| 2026-05-05 17:19 | 35.17244 | -120.46860 | 32062 ft | 454 kts | 324° |
| 2026-05-05 17:19 | 35.21936 | -120.52048 | 32063 ft | 455 kts | 324° |
| 2026-05-05 17:20 | 35.26610 | -120.57287 | 32056 ft | 455 kts | 324° |
| 2026-05-05 17:20 | 35.31276 | -120.62546 | 32064 ft | 455 kts | 324° |
| 2026-05-05 17:21 | 35.35931 | -120.67803 | 32069 ft | 454 kts | 324° |
| 2026-05-05 17:22 | 35.42816 | -120.75721 | 32091 ft | 452 kts | 326° |
| 2026-05-05 17:22 | 35.47534 | -120.80902 | 32080 ft | 457 kts | 325° |
| 2026-05-05 17:23 | 35.52389 | -120.85859 | 32088 ft | 452 kts | 330° |
| 2026-05-05 17:23 | 35.57448 | -120.90426 | 32062 ft | 452 kts | 331° |
| 2026-05-05 17:24 | 35.62509 | -120.95023 | 32069 ft | 453 kts | 331° |
| 2026-05-05 17:24 | 35.67562 | -120.99695 | 32066 ft | 454 kts | 330° |
| 2026-05-05 17:25 | 35.72442 | -121.04254 | 32052 ft | 433 kts | 331° |
| 2026-05-05 17:25 | 35.74043 | -121.05759 | 32040 ft | 422 kts | 332° |
| 2026-05-05 17:25 | 35.77060 | -121.08595 | 32061 ft | 402 kts | 332° |
| 2026-05-05 17:25 | 35.79254 | -121.10651 | 32055 ft | 391 kts | 332° |
| 2026-05-05 17:26 | 35.81432 | -121.12679 | 32069 ft | 393 kts | 332° |
| 2026-05-05 17:26 | 35.85850 | -121.16788 | 32086 ft | 402 kts | 332° |
| 2026-05-05 17:27 | 35.90214 | -121.20885 | 31719 ft | 388 kts | 332° |
| 2026-05-05 17:27 | 35.92349 | -121.22896 | 31344 ft | 384 kts | 332° |
| 2026-05-05 17:27 | 35.94465 | -121.24887 | 30997 ft | 380 kts | 332° |
| 2026-05-05 17:27 | 35.96560 | -121.26855 | 30645 ft | 377 kts | 332° |
| 2026-05-05 17:28 | 35.98637 | -121.28809 | 30300 ft | 374 kts | 332° |
| 2026-05-05 17:28 | 36.00695 | -121.30745 | 29889 ft | 371 kts | 332° |
| 2026-05-05 17:28 | 36.02737 | -121.32668 | 29485 ft | 368 kts | 332° |
| 2026-05-05 17:28 | 36.04757 | -121.34572 | 29177 ft | 362 kts | 332° |
| 2026-05-05 17:29 | 36.06757 | -121.36455 | 28758 ft | 359 kts | 332° |
| 2026-05-05 17:29 | 36.08796 | -121.38192 | 28408 ft | 351 kts | 335° |
| 2026-05-05 17:29 | 36.10820 | -121.39771 | 28056 ft | 347 kts | 336° |
| 2026-05-05 17:29 | 36.12867 | -121.41327 | 27685 ft | 343 kts | 336° |
| 2026-05-05 17:30 | 36.14889 | -121.42863 | 27325 ft | 340 kts | 336° |
| 2026-05-05 17:30 | 36.16892 | -121.44397 | 27013 ft | 336 kts | 336° |
| 2026-05-05 17:30 | 36.18881 | -121.45928 | 26648 ft | 336 kts | 336° |
| 2026-05-05 17:30 | 36.20857 | -121.47456 | 26275 ft | 334 kts | 336° |
| 2026-05-05 17:31 | 36.22823 | -121.48984 | 25955 ft | 332 kts | 335° |
| 2026-05-05 17:31 | 36.24750 | -121.50486 | 25617 ft | 330 kts | 335° |
| 2026-05-05 17:31 | 36.26689 | -121.51998 | 25281 ft | 328 kts | 335° |
| 2026-05-05 17:31 | 36.28619 | -121.53507 | 24923 ft | 327 kts | 334° |
| 2026-05-05 17:32 | 36.30537 | -121.55008 | 24599 ft | 325 kts | 334° |
| 2026-05-05 17:32 | 36.32450 | -121.56504 | 24259 ft | 325 kts | 334° |
| 2026-05-05 17:32 | 36.34359 | -121.57999 | 23925 ft | 325 kts | 334° |
| 2026-05-05 17:32 | 36.36270 | -121.59496 | 23574 ft | 324 kts | 334° |
| 2026-05-05 17:33 | 36.38175 | -121.60991 | 23183 ft | 323 kts | 334° |
| 2026-05-05 17:33 | 36.40075 | -121.62482 | 22804 ft | 322 kts | 333° |
| 2026-05-05 17:33 | 36.41959 | -121.63962 | 22484 ft | 318 kts | 333° |
| 2026-05-05 17:33 | 36.43825 | -121.65429 | 22136 ft | 316 kts | 333° |
| 2026-05-05 17:34 | 36.45680 | -121.66886 | 21807 ft | 314 kts | 333° |
| 2026-05-05 17:34 | 36.47520 | -121.68334 | 21474 ft | 312 kts | 333° |
| 2026-05-05 17:34 | 36.49329 | -121.69757 | 21154 ft | 309 kts | 333° |
| 2026-05-05 17:34 | 36.51141 | -121.71186 | 20826 ft | 308 kts | 333° |
| 2026-05-05 17:35 | 36.52948 | -121.72611 | 20460 ft | 307 kts | 333° |
| 2026-05-05 17:35 | 36.54747 | -121.74034 | 20143 ft | 306 kts | 332° |
| 2026-05-05 17:35 | 36.56541 | -121.75453 | 19815 ft | 305 kts | 332° |
| 2026-05-05 17:35 | 36.58332 | -121.76869 | 19489 ft | 304 kts | 332° |
| 2026-05-05 17:36 | 36.60113 | -121.78279 | 19166 ft | 303 kts | 332° |
| 2026-05-05 17:36 | 36.61888 | -121.79685 | 18847 ft | 302 kts | 332° |
| 2026-05-05 17:36 | 36.63061 | -121.80614 | 18627 ft | 301 kts | 332° |
| 2026-05-05 17:36 | 36.65404 | -121.82472 | 18160 ft | 300 kts | 331° |
| 2026-05-05 17:37 | 36.67158 | -121.83865 | 17824 ft | 298 kts | 331° |
| 2026-05-05 17:37 | 36.68341 | -121.84804 | 17610 ft | 297 kts | 331° |
| 2026-05-05 17:37 | 36.70075 | -121.86180 | 17264 ft | 296 kts | 332° |
| 2026-05-05 17:37 | 36.71788 | -121.87541 | 16931 ft | 294 kts | 332° |
| 2026-05-05 17:38 | 36.73513 | -121.88906 | 16613 ft | 292 kts | 333° |
| 2026-05-05 17:38 | 36.75363 | -121.89849 | 16282 ft | 285 kts | 349° |
| 2026-05-05 17:38 | 36.77293 | -121.90380 | 15968 ft | 283 kts | 351° |
| 2026-05-05 17:38 | 36.79220 | -121.90889 | 15663 ft | 282 kts | 351° |
| 2026-05-05 17:39 | 36.81138 | -121.91401 | 15360 ft | 281 kts | 350° |
| 2026-05-05 17:39 | 36.83019 | -121.91911 | 15060 ft | 280 kts | 350° |
| 2026-05-05 17:39 | 36.84940 | -121.92438 | 14747 ft | 279 kts | 350° |
| 2026-05-05 17:39 | 36.86826 | -121.92961 | 14443 ft | 277 kts | 350° |
| 2026-05-05 17:40 | 36.88678 | -121.93476 | 14157 ft | 275 kts | 350° |
| 2026-05-05 17:40 | 36.90545 | -121.93997 | 13847 ft | 274 kts | 350° |
| 2026-05-05 17:40 | 36.92402 | -121.94517 | 13513 ft | 273 kts | 350° |
| 2026-05-05 17:40 | 36.94252 | -121.95034 | 13197 ft | 272 kts | 350° |
| 2026-05-05 17:41 | 36.96088 | -121.95604 | 12875 ft | 272 kts | 347° |
| 2026-05-05 17:41 | 36.97901 | -121.96294 | 12578 ft | 273 kts | 346° |
| 2026-05-05 17:41 | 36.99711 | -121.97015 | 12270 ft | 272 kts | 346° |
| 2026-05-05 17:41 | 37.01504 | -121.97731 | 11968 ft | 270 kts | 346° |
| 2026-05-05 17:42 | 37.03294 | -121.98442 | 11671 ft | 269 kts | 346° |
| 2026-05-05 17:42 | 37.05078 | -121.99147 | 11375 ft | 267 kts | 346° |
| 2026-05-05 17:42 | 37.06843 | -121.99841 | 11079 ft | 265 kts | 346° |
| 2026-05-05 17:42 | 37.08562 | -122.00516 | 10784 ft | 264 kts | 346° |
| 2026-05-05 17:43 | 37.10309 | -122.01200 | 10513 ft | 262 kts | 346° |
| 2026-05-05 17:43 | 37.12052 | -122.01883 | 10189 ft | 263 kts | 346° |
| 2026-05-05 17:43 | 37.13809 | -122.02570 | 9742 ft | 267 kts | 346° |
| 2026-05-05 17:43 | 37.15597 | -122.03268 | 9251 ft | 271 kts | 345° |
| 2026-05-05 17:44 | 37.17405 | -122.03975 | 8803 ft | 273 kts | 345° |
| 2026-05-05 17:44 | 37.19206 | -122.04682 | 8342 ft | 276 kts | 345° |
| 2026-05-05 17:44 | 37.21043 | -122.05402 | 7903 ft | 278 kts | 344° |
| 2026-05-05 17:44 | 37.22901 | -122.06133 | 7466 ft | 280 kts | 344° |
| 2026-05-05 17:45 | 37.24774 | -122.06867 | 7026 ft | 283 kts | 344° |
| 2026-05-05 17:45 | 37.26658 | -122.07606 | 6588 ft | 285 kts | 343° |
| 2026-05-05 17:45 | 37.28558 | -122.08354 | 6192 ft | 286 kts | 342° |
| 2026-05-05 17:45 | 37.30442 | -122.09097 | 5961 ft | 282 kts | 343° |
| 2026-05-05 17:46 | 37.32308 | -122.09827 | 5673 ft | 278 kts | 342° |
| 2026-05-05 17:46 | 37.34139 | -122.10556 | 5423 ft | 274 kts | 342° |
| 2026-05-05 17:46 | 37.35953 | -122.11266 | 5197 ft | 270 kts | 342° |
| 2026-05-05 17:46 | 37.37721 | -122.11960 | 5043 ft | 263 kts | 342° |
| 2026-05-05 17:47 | 37.39472 | -122.12576 | 4898 ft | 260 kts | 343° |
| 2026-05-05 17:47 | 37.41208 | -122.13217 | 4709 ft | 260 kts | 341° |
| 2026-05-05 17:47 | 37.42940 | -122.13828 | 4514 ft | 255 kts | 343° |
| 2026-05-05 17:47 | 37.44600 | -122.14371 | 4251 ft | 244 kts | 344° |
| 2026-05-05 17:48 | 37.46204 | -122.14874 | 3996 ft | 231 kts | 344° |
| 2026-05-05 17:48 | 37.47726 | -122.15360 | 3693 ft | 221 kts | 343° |
| 2026-05-05 17:48 | 37.49189 | -122.15836 | 3378 ft | 213 kts | 343° |
| 2026-05-05 17:48 | 37.50602 | -122.16299 | 3059 ft | 207 kts | 343° |
| 2026-05-05 17:49 | 37.51973 | -122.16751 | 2772 ft | 200 kts | 343° |
| 2026-05-05 17:49 | 37.53223 | -122.17297 | 2681 ft | 182 kts | 324° |
| 2026-05-05 17:49 | 37.54057 | -122.18439 | 2688 ft | 178 kts | 303° |
| 2026-05-05 17:49 | 37.54660 | -122.19766 | 2662 ft | 173 kts | 299° |
| 2026-05-05 17:50 | 37.55225 | -122.21065 | 2628 ft | 168 kts | 300° |
| 2026-05-05 17:50 | 37.55789 | -122.22354 | 2417 ft | 165 kts | 298° |
| 2026-05-05 17:50 | 37.56307 | -122.23582 | 2204 ft | 152 kts | 298° |
| 2026-05-05 17:50 | 37.56782 | -122.24721 | 2026 ft | 145 kts | 298° |
| 2026-05-05 17:51 | 37.57258 | -122.25865 | 1828 ft | 149 kts | 298° |
| 2026-05-05 17:51 | 37.57721 | -122.26978 | 1636 ft | 139 kts | 298° |
| 2026-05-05 17:51 | 37.58161 | -122.28035 | 1438 ft | 135 kts | 298° |
| 2026-05-05 17:51 | 37.58599 | -122.29087 | 1245 ft | 137 kts | 298° |
| 2026-05-05 17:52 | 37.59045 | -122.30156 | 1058 ft | 138 kts | 298° |
| 2026-05-05 17:52 | 37.59484 | -122.31211 | 852 ft | 137 kts | 297° |
| 2026-05-05 17:52 | 37.59927 | -122.32274 | 670 ft | 136 kts | 297° |
| 2026-05-05 17:52 | 37.60364 | -122.33323 | 490 ft | 135 kts | 297° |
| 2026-05-05 17:53 | 37.60800 | -122.34372 | 302 ft | 133 kts | 296° |
| 2026-05-05 17:53 | 37.61218 | -122.35391 | 122 ft | 130 kts | 297° |
| 2026-05-05 17:53 | 37.61635 | -122.36390 | 20 ft | 125 kts | 297° |
| 2026-05-05 17:53 | 37.61944 | -122.37127 | 20 ft | 65 kts | 298° |
| 2026-05-05 17:54 | 37.62109 | -122.37516 | 20 ft | 46 kts | 297° |
| 2026-05-05 17:54 | 37.62224 | -122.37870 | 20 ft | 41 kts | 282° |
| 2026-05-05 17:54 | 37.62227 | -122.38177 | 20 ft | 32 kts | 269° |
| 2026-05-05 17:54 | 37.62219 | -122.38443 | 20 ft | 26 kts | 267° |
| 2026-05-05 17:55 | 37.62185 | -122.38527 | 20 ft | 8 kts | 159° |
| 2026-05-05 17:55 | 37.62143 | -122.38449 | 20 ft | 13 kts | 118° |
| 2026-05-05 17:55 | 37.62093 | -122.38330 | 21 ft | 17 kts | 117° |
| 2026-05-05 17:55 | 37.62030 | -122.38179 | 20 ft | 21 kts | 118° |
| 2026-05-05 17:56 | 37.61953 | -122.38011 | 20 ft | 19 kts | 135° |
| 2026-05-05 17:56 | 37.61849 | -122.37979 | 20 ft | 17 kts | 163° |
| 2026-05-05 17:56 | 37.61728 | -122.37946 | 20 ft | 17 kts | 181° |
| 2026-05-05 17:56 | 37.61634 | -122.37982 | 20 ft | 15 kts | 208° |
| 2026-05-05 17:57 | 37.61540 | -122.38046 | 20 ft | 15 kts | 208° |
| 2026-05-05 17:57 | 37.61467 | -122.38094 | 20 ft | 10 kts | 208° |
| 2026-05-05 17:57 | 37.61416 | -122.38132 | 22 ft | 6 kts | 227° |
| 2026-05-05 17:57 | 37.61422 | -122.38168 | 20 ft | 5 kts | 320° |
| 2026-05-05 17:58 | 37.61443 | -122.38190 | 20 ft | 3 kts | 320° |
| 2026-05-05 17:58 | 37.61448 | -122.38195 | 20 ft | 0 kts | 320° |